sensor_id;sensor_type;location;lat;lon;timestamp;pressure;altitude;pressure_sealevel;temperature;humidity
14204;BME280;7185;51.854;6.622;2023-04-27T00:01:05;101751.53;;;7.26;68.89
14204;BME280;7185;51.854;6.622;2023-04-27T00:03:37;101763.56;;;7.18;69.15
14204;BME280;7185;51.854;6.622;2023-04-27T00:06:08;101771.41;;;7.18;69.47
14204;BME280;7185;51.854;6.622;2023-04-27T00:08:40;101763.59;;;7.20;69.28
14204;BME280;7185;51.854;6.622;2023-04-27T00:11:11;101759.97;;;7.10;69.86
14204;BME280;7185;51.854;6.622;2023-04-27T00:13:43;101761.72;;;7.11;69.92
14204;BME280;7185;51.854;6.622;2023-04-27T00:16:16;101769.41;;;7.01;69.97
14204;BME280;7185;51.854;6.622;2023-04-27T00:18:47;101763.22;;;6.93;70.25
14204;BME280;7185;51.854;6.622;2023-04-27T00:21:19;101770.94;;;6.87;70.89
14204;BME280;7185;51.854;6.622;2023-04-27T00:23:51;101778.91;;;6.96;70.59
14204;BME280;7185;51.854;6.622;2023-04-27T00:26:22;101779.75;;;6.95;70.69
14204;BME280;7185;51.854;6.622;2023-04-27T00:28:54;101777.03;;;6.89;70.77
14204;BME280;7185;51.854;6.622;2023-04-27T00:31:28;101788.13;;;6.77;71.17
14204;BME280;7185;51.854;6.622;2023-04-27T00:33:59;101794.19;;;6.75;71.29
14204;BME280;7185;51.854;6.622;2023-04-27T00:36:32;101789.81;;;6.72;71.36
14204;BME280;7185;51.854;6.622;2023-04-27T00:39:05;101779.47;;;6.78;71.16
14204;BME280;7185;51.854;6.622;2023-04-27T00:41:37;101788.13;;;6.77;71.39
14204;BME280;7185;51.854;6.622;2023-04-27T00:44:09;101788.78;;;6.62;71.59
14204;BME280;7185;51.854;6.622;2023-04-27T00:46:42;101793.91;;;6.59;71.97
14204;BME280;7185;51.854;6.622;2023-04-27T00:49:14;101787.72;;;6.51;72.16
14204;BME280;7185;51.854;6.622;2023-04-27T00:51:45;101788.53;;;6.48;72.26
14204;BME280;7185;51.854;6.622;2023-04-27T00:54:18;101792.88;;;6.48;72.28
14204;BME280;7185;51.854;6.622;2023-04-27T00:56:51;101787.91;;;6.62;71.74
14204;BME280;7185;51.854;6.622;2023-04-27T00:59:22;101786.03;;;6.54;71.43
14204;BME280;7185;51.854;6.622;2023-04-27T01:01:55;101791.94;;;6.46;71.81
14204;BME280;7185;51.854;6.622;2023-04-27T01:04:27;101797.88;;;6.37;72.11
14204;BME280;7185;51.854;6.622;2023-04-27T01:07:01;101795.19;;;6.32;72.26
14204;BME280;7185;51.854;6.622;2023-04-27T01:09:33;101797.78;;;6.32;72.37
14204;BME280;7185;51.854;6.622;2023-04-27T01:12:05;101789.16;;;6.35;72.50
14204;BME280;7185;51.854;6.622;2023-04-27T01:14:36;101795.28;;;6.38;72.34
14204;BME280;7185;51.854;6.622;2023-04-27T01:17:09;101794.31;;;6.32;72.48
14204;BME280;7185;51.854;6.622;2023-04-27T01:19:41;101789.88;;;6.28;72.36
14204;BME280;7185;51.854;6.622;2023-04-27T01:22:14;101796.75;;;6.24;72.84
14204;BME280;7185;51.854;6.622;2023-04-27T01:24:47;101796.72;;;6.21;73.05
14204;BME280;7185;51.854;6.622;2023-04-27T01:27:18;101801.00;;;6.19;72.93
14204;BME280;7185;51.854;6.622;2023-04-27T01:29:50;101794.97;;;6.20;73.01
14204;BME280;7185;51.854;6.622;2023-04-27T01:32:21;101806.00;;;6.08;73.30
14204;BME280;7185;51.854;6.622;2023-04-27T01:34:53;101810.34;;;6.06;73.30
14204;BME280;7185;51.854;6.622;2023-04-27T01:37:25;101802.59;;;6.11;73.37
14204;BME280;7185;51.854;6.622;2023-04-27T01:39:58;101795.75;;;6.16;72.80
14204;BME280;7185;51.854;6.622;2023-04-27T01:42:30;101790.44;;;6.10;72.84
14204;BME280;7185;51.854;6.622;2023-04-27T01:45:01;101794.88;;;6.17;72.67
14204;BME280;7185;51.854;6.622;2023-04-27T01:47:33;101788.63;;;6.07;72.98
14204;BME280;7185;51.854;6.622;2023-04-27T01:50:05;101799.22;;;6.16;72.75
14204;BME280;7185;51.854;6.622;2023-04-27T01:52:37;101791.41;;;6.15;72.85
14204;BME280;7185;51.854;6.622;2023-04-27T01:55:10;101793.91;;;6.10;72.74
14204;BME280;7185;51.854;6.622;2023-04-27T01:57:41;101801.59;;;6.02;72.76
14204;BME280;7185;51.854;6.622;2023-04-27T02:00:14;101797.09;;;5.98;72.76
14204;BME280;7185;51.854;6.622;2023-04-27T02:02:45;101805.44;;;5.82;72.99
14204;BME280;7185;51.854;6.622;2023-04-27T02:05:17;101806.25;;;5.79;73.38
14204;BME280;7185;51.854;6.622;2023-04-27T02:07:49;101797.22;;;6.01;73.13
14204;BME280;7185;51.854;6.622;2023-04-27T02:10:22;101802.16;;;5.90;73.18
14204;BME280;7185;51.854;6.622;2023-04-27T02:12:54;101793.53;;;5.92;73.20
14204;BME280;7185;51.854;6.622;2023-04-27T02:15:26;101794.47;;;5.95;72.68
14204;BME280;7185;51.854;6.622;2023-04-27T02:17:57;101790.69;;;5.81;72.58
14204;BME280;7185;51.854;6.622;2023-04-27T02:20:29;101794.03;;;5.73;73.18
14204;BME280;7185;51.854;6.622;2023-04-27T02:23:01;101804.22;;;5.64;73.08
14204;BME280;7185;51.854;6.622;2023-04-27T02:25:36;101797.97;;;5.56;73.63
14204;BME280;7185;51.854;6.622;2023-04-27T02:28:08;101800.53;;;5.53;73.90
14204;BME280;7185;51.854;6.622;2023-04-27T02:30:39;101803.84;;;5.46;74.01
14204;BME280;7185;51.854;6.622;2023-04-27T02:33:11;101802.78;;;5.37;74.05
14204;BME280;7185;51.854;6.622;2023-04-27T02:35:43;101793.44;;;5.46;74.07
14204;BME280;7185;51.854;6.622;2023-04-27T02:38:14;101795.16;;;5.47;73.66
14204;BME280;7185;51.854;6.622;2023-04-27T02:40:52;101805.50;;;5.43;74.12
14204;BME280;7185;51.854;6.622;2023-04-27T02:43:23;101792.50;;;5.43;73.84
14204;BME280;7185;51.854;6.622;2023-04-27T02:45:55;101795.50;;;5.62;73.53
14204;BME280;7185;51.854;6.622;2023-04-27T02:48:26;101783.31;;;5.61;73.59
14204;BME280;7185;51.854;6.622;2023-04-27T02:50:58;101782.34;;;5.56;73.40
14204;BME280;7185;51.854;6.622;2023-04-27T02:53:30;101779.84;;;5.59;73.09
14204;BME280;7185;51.854;6.622;2023-04-27T02:56:03;101776.41;;;5.60;73.02
14204;BME280;7185;51.854;6.622;2023-04-27T02:58:35;101775.38;;;5.53;73.23
14204;BME280;7185;51.854;6.622;2023-04-27T03:01:06;101779.78;;;5.57;72.97
14204;BME280;7185;51.854;6.622;2023-04-27T03:03:38;101781.06;;;5.35;73.18
14204;BME280;7185;51.854;6.622;2023-04-27T03:06:10;101778.19;;;5.24;74.20
14204;BME280;7185;51.854;6.622;2023-04-27T03:08:42;101771.06;;;5.14;74.33
14204;BME280;7185;51.854;6.622;2023-04-27T03:11:15;101776.97;;;5.08;74.38
14204;BME280;7185;51.854;6.622;2023-04-27T03:13:47;101772.13;;;5.24;74.51
14204;BME280;7185;51.854;6.622;2023-04-27T03:16:18;101776.25;;;5.14;74.49
14204;BME280;7185;51.854;6.622;2023-04-27T03:18:50;101773.47;;;5.08;74.34
14204;BME280;7185;51.854;6.622;2023-04-27T03:21:23;101779.59;;;5.10;74.81
14204;BME280;7185;51.854;6.622;2023-04-27T03:23:54;101777.03;;;5.11;74.65
14204;BME280;7185;51.854;6.622;2023-04-27T03:26:27;101772.66;;;5.09;74.41
14204;BME280;7185;51.854;6.622;2023-04-27T03:28:59;101771.66;;;5.02;74.39
14204;BME280;7185;51.854;6.622;2023-04-27T03:31:30;101783.56;;;4.94;74.58
14204;BME280;7185;51.854;6.622;2023-04-27T03:34:02;101786.91;;;4.90;74.62
14204;BME280;7185;51.854;6.622;2023-04-27T03:36:33;101790.44;;;4.92;74.97
14204;BME280;7185;51.854;6.622;2023-04-27T03:39:05;101798.94;;;4.85;74.75
14204;BME280;7185;51.854;6.622;2023-04-27T03:41:38;101790.38;;;4.89;74.87
14204;BME280;7185;51.854;6.622;2023-04-27T03:44:20;101782.19;;;5.08;74.55
14204;BME280;7185;51.854;6.622;2023-04-27T03:47:01;101783.47;;;4.91;74.13
14204;BME280;7185;51.854;6.622;2023-04-27T03:49:33;101788.53;;;4.85;74.51
14204;BME280;7185;51.854;6.622;2023-04-27T03:52:07;101797.50;;;4.96;74.31
14204;BME280;7185;51.854;6.622;2023-04-27T03:54:39;101795.59;;;4.89;74.43
14204;BME280;7185;51.854;6.622;2023-04-27T03:57:12;101795.19;;;4.73;74.43
14204;BME280;7185;51.854;6.622;2023-04-27T03:59:43;101800.81;;;4.90;74.04
14204;BME280;7185;51.854;6.622;2023-04-27T04:02:15;101809.56;;;4.94;74.04
14204;BME280;7185;51.854;6.622;2023-04-27T04:04:58;101809.56;;;4.94;74.00
14204;BME280;7185;51.854;6.622;2023-04-27T04:07:30;101808.03;;;5.02;74.29
14204;BME280;7185;51.854;6.622;2023-04-27T04:10:02;101812.34;;;5.02;73.69
14204;BME280;7185;51.854;6.622;2023-04-27T04:12:41;101812.84;;;4.87;74.05
14204;BME280;7185;51.854;6.622;2023-04-27T04:15:13;101819.88;;;4.91;73.88
14204;BME280;7185;51.854;6.622;2023-04-27T04:17:45;101819.66;;;4.82;74.12
14204;BME280;7185;51.854;6.622;2023-04-27T04:20:30;101812.56;;;4.74;74.42
14204;BME280;7185;51.854;6.622;2023-04-27T04:23:17;101822.88;;;4.73;74.28
14204;BME280;7185;51.854;6.622;2023-04-27T04:25:48;101822.84;;;4.71;74.38
14204;BME280;7185;51.854;6.622;2023-04-27T04:28:22;101823.00;;;4.77;74.30
14204;BME280;7185;51.854;6.622;2023-04-27T04:31:05;101822.97;;;4.76;74.37
14204;BME280;7185;51.854;6.622;2023-04-27T04:33:40;101818.47;;;4.69;74.55
14204;BME280;7185;51.854;6.622;2023-04-27T04:36:14;101828.13;;;4.74;74.67
14204;BME280;7185;51.854;6.622;2023-04-27T04:38:56;101829.03;;;4.76;74.47
14204;BME280;7185;51.854;6.622;2023-04-27T04:41:27;101822.25;;;4.82;74.71
14204;BME280;7185;51.854;6.622;2023-04-27T04:44:16;101821.25;;;4.76;74.68
14204;BME280;7185;51.854;6.622;2023-04-27T04:46:48;101822.16;;;4.78;74.86
14204;BME280;7185;51.854;6.622;2023-04-27T04:49:20;101826.63;;;4.83;74.72
14204;BME280;7185;51.854;6.622;2023-04-27T04:51:58;101816.56;;;4.98;74.68
14204;BME280;7185;51.854;6.622;2023-04-27T04:54:30;101823.47;;;4.96;74.71
14204;BME280;7185;51.854;6.622;2023-04-27T04:57:01;101824.75;;;5.14;74.83
14204;BME280;7185;51.854;6.622;2023-04-27T04:59:46;101824.63;;;5.09;75.42
14204;BME280;7185;51.854;6.622;2023-04-27T05:02:18;101829.34;;;5.24;75.30
14204;BME280;7185;51.854;6.622;2023-04-27T05:04:49;101829.59;;;5.35;75.13
14204;BME280;7185;51.854;6.622;2023-04-27T05:07:22;101831.66;;;5.50;75.03
14204;BME280;7185;51.854;6.622;2023-04-27T05:09:54;101837.72;;;5.50;75.30
14204;BME280;7185;51.854;6.622;2023-04-27T05:12:31;101845.59;;;5.52;75.27
14204;BME280;7185;51.854;6.622;2023-04-27T05:15:05;101844.19;;;5.66;75.08
14204;BME280;7185;51.854;6.622;2023-04-27T05:17:40;101852.25;;;5.79;75.09
14204;BME280;7185;51.854;6.622;2023-04-27T05:20:15;101856.88;;;5.92;74.92
14204;BME280;7185;51.854;6.622;2023-04-27T05:22:53;101845.97;;;6.09;74.87
14204;BME280;7185;51.854;6.622;2023-04-27T05:25:29;101854.03;;;6.22;74.54
14204;BME280;7185;51.854;6.622;2023-04-27T05:28:02;101846.72;;;6.47;74.28
14204;BME280;7185;51.854;6.622;2023-04-27T05:30:36;101854.88;;;6.67;73.80
14204;BME280;7185;51.854;6.622;2023-04-27T05:33:24;101859.63;;;6.92;72.81
14204;BME280;7185;51.854;6.622;2023-04-27T05:35:56;101856.38;;;7.05;72.29
14204;BME280;7185;51.854;6.622;2023-04-27T05:38:28;101848.84;;;7.22;72.21
14204;BME280;7185;51.854;6.622;2023-04-27T05:41:00;101850.81;;;7.39;71.36
14204;BME280;7185;51.854;6.622;2023-04-27T05:43:32;101853.63;;;7.51;71.04
14204;BME280;7185;51.854;6.622;2023-04-27T05:46:12;101846.06;;;7.68;71.54
14204;BME280;7185;51.854;6.622;2023-04-27T05:48:44;101850.47;;;7.75;70.88
14204;BME280;7185;51.854;6.622;2023-04-27T05:51:15;101843.75;;;7.91;70.75
14204;BME280;7185;51.854;6.622;2023-04-27T05:53:47;101847.06;;;7.81;69.48
14204;BME280;7185;51.854;6.622;2023-04-27T05:56:19;101846.16;;;7.79;68.62
14204;BME280;7185;51.854;6.622;2023-04-27T05:58:50;101844.94;;;8.18;68.02
14204;BME280;7185;51.854;6.622;2023-04-27T06:01:23;101853.03;;;8.41;67.29
14204;BME280;7185;51.854;6.622;2023-04-27T06:03:56;101851.41;;;8.48;67.38
14204;BME280;7185;51.854;6.622;2023-04-27T06:06:31;101858.50;;;8.65;66.33
14204;BME280;7185;51.854;6.622;2023-04-27T06:09:03;101856.63;;;8.48;65.53
14204;BME280;7185;51.854;6.622;2023-04-27T06:11:34;101858.44;;;8.57;63.81
14204;BME280;7185;51.854;6.622;2023-04-27T06:14:16;101854.97;;;8.59;63.27
14204;BME280;7185;51.854;6.622;2023-04-27T06:17:17;101857.81;;;8.80;62.74
14204;BME280;7185;51.854;6.622;2023-04-27T06:19:48;101854.28;;;8.77;62.58
14204;BME280;7185;51.854;6.622;2023-04-27T06:22:20;101855.28;;;8.90;62.09
14204;BME280;7185;51.854;6.622;2023-04-27T06:24:52;101849.22;;;8.95;61.30
14204;BME280;7185;51.854;6.622;2023-04-27T06:27:23;101846.72;;;9.13;61.47
14204;BME280;7185;51.854;6.622;2023-04-27T06:29:55;101850.25;;;9.12;60.18
14204;BME280;7185;51.854;6.622;2023-04-27T06:32:28;101849.13;;;8.85;60.30
14204;BME280;7185;51.854;6.622;2023-04-27T06:35:00;101840.44;;;8.89;61.41
14204;BME280;7185;51.854;6.622;2023-04-27T06:37:31;101842.44;;;9.21;60.13
14204;BME280;7185;51.854;6.622;2023-04-27T06:40:04;101846.00;;;9.30;60.74
14204;BME280;7185;51.854;6.622;2023-04-27T06:42:36;101835.69;;;9.54;60.39
14204;BME280;7185;51.854;6.622;2023-04-27T06:45:08;101840.75;;;9.31;59.58
14204;BME280;7185;51.854;6.622;2023-04-27T06:47:42;101837.25;;;9.28;59.11
14204;BME280;7185;51.854;6.622;2023-04-27T06:50:19;101830.53;;;9.76;58.66
14204;BME280;7185;51.854;6.622;2023-04-27T06:52:51;101828.66;;;9.49;57.90
14204;BME280;7185;51.854;6.622;2023-04-27T06:55:24;101826.22;;;9.83;58.09
14204;BME280;7185;51.854;6.622;2023-04-27T06:57:55;101820.16;;;9.95;57.19
14204;BME280;7185;51.854;6.622;2023-04-27T07:00:27;101825.38;;;9.88;57.68
14204;BME280;7185;51.854;6.622;2023-04-27T07:03:00;101818.38;;;9.87;56.98
14204;BME280;7185;51.854;6.622;2023-04-27T07:05:32;101825.47;;;10.13;56.07
14204;BME280;7185;51.854;6.622;2023-04-27T07:08:04;101828.94;;;10.09;55.15
14204;BME280;7185;51.854;6.622;2023-04-27T07:10:36;101828.06;;;10.05;56.23
14204;BME280;7185;51.854;6.622;2023-04-27T07:13:07;101826.47;;;10.48;54.71
14204;BME280;7185;51.854;6.622;2023-04-27T07:15:39;101822.09;;;10.51;53.70
14204;BME280;7185;51.854;6.622;2023-04-27T07:18:12;101825.63;;;10.97;54.15
14204;BME280;7185;51.854;6.622;2023-04-27T07:20:44;101821.25;;;10.79;52.90
14204;BME280;7185;51.854;6.622;2023-04-27T07:23:15;101826.44;;;10.37;52.01
14204;BME280;7185;51.854;6.622;2023-04-27T07:25:47;101827.34;;;10.76;53.45
14204;BME280;7185;51.854;6.622;2023-04-27T07:28:18;101830.88;;;10.71;53.47
14204;BME280;7185;51.854;6.622;2023-04-27T07:30:50;101825.63;;;10.67;51.87
14204;BME280;7185;51.854;6.622;2023-04-27T07:33:23;101828.22;;;11.03;50.59
14204;BME280;7185;51.854;6.622;2023-04-27T07:35:57;101829.97;;;10.99;51.34
14204;BME280;7185;51.854;6.622;2023-04-27T07:38:28;101833.50;;;11.05;49.91
14204;BME280;7185;51.854;6.622;2023-04-27T07:41:05;101837.84;;;11.30;51.44
14204;BME280;7185;51.854;6.622;2023-04-27T07:43:36;101841.38;;;11.00;51.26
14204;BME280;7185;51.854;6.622;2023-04-27T07:46:08;101836.09;;;11.39;50.13
14204;BME280;7185;51.854;6.622;2023-04-27T07:48:42;101840.44;;;11.46;48.85
14204;BME280;7185;51.854;6.622;2023-04-27T07:51:14;101840.34;;;11.85;49.89
14204;BME280;7185;51.854;6.622;2023-04-27T07:53:46;101844.75;;;11.75;47.48
14204;BME280;7185;51.854;6.622;2023-04-27T07:56:18;101847.28;;;11.95;46.54
14204;BME280;7185;51.854;6.622;2023-04-27T07:58:50;101842.91;;;12.11;46.29
14204;BME280;7185;51.854;6.622;2023-04-27T08:01:23;101844.66;;;12.04;48.63
14204;BME280;7185;51.854;6.622;2023-04-27T08:03:56;101841.94;;;12.26;47.30
14204;BME280;7185;51.854;6.622;2023-04-27T08:06:28;101847.81;;;12.68;46.55
14204;BME280;7185;51.854;6.622;2023-04-27T08:09:00;101845.97;;;12.83;47.04
14204;BME280;7185;51.854;6.622;2023-04-27T08:11:33;101844.22;;;12.82;44.96
14204;BME280;7185;51.854;6.622;2023-04-27T08:14:05;101833.38;;;13.19;46.14
14204;BME280;7185;51.854;6.622;2023-04-27T08:16:43;101839.56;;;13.12;43.63
14204;BME280;7185;51.854;6.622;2023-04-27T08:19:16;101842.88;;;13.34;46.67
14204;BME280;7185;51.854;6.622;2023-04-27T08:21:48;101836.63;;;13.49;43.53
14204;BME280;7185;51.854;6.622;2023-04-27T08:24:19;101836.47;;;13.63;42.44
14204;BME280;7185;51.854;6.622;2023-04-27T08:26:51;101837.38;;;13.60;41.99
14204;BME280;7185;51.854;6.622;2023-04-27T08:29:22;101828.47;;;13.69;41.66
14204;BME280;7185;51.854;6.622;2023-04-27T08:31:58;101838.34;;;13.50;41.89
14204;BME280;7185;51.854;6.622;2023-04-27T08:34:31;101825.44;;;14.01;43.24
14204;BME280;7185;51.854;6.622;2023-04-27T08:37:03;101836.22;;;14.50;41.96
14204;BME280;7185;51.854;6.622;2023-04-27T08:39:34;101824.88;;;14.42;40.95
14204;BME280;7185;51.854;6.622;2023-04-27T08:42:09;101835.22;;;14.57;39.44
14204;BME280;7185;51.854;6.622;2023-04-27T08:44:42;101829.53;;;14.85;42.59
14204;BME280;7185;51.854;6.622;2023-04-27T08:47:14;101828.91;;;14.69;38.76
14204;BME280;7185;51.854;6.622;2023-04-27T08:49:49;101821.22;;;15.08;39.00
14204;BME280;7185;51.854;6.622;2023-04-27T08:52:20;101829.63;;;15.32;40.94
14204;BME280;7185;51.854;6.622;2023-04-27T08:54:52;101816.72;;;15.62;39.25
14204;BME280;7185;51.854;6.622;2023-04-27T08:57:24;101812.84;;;15.80;37.76
14204;BME280;7185;51.854;6.622;2023-04-27T08:59:59;101826.59;;;15.02;36.89
14204;BME280;7185;51.854;6.622;2023-04-27T09:02:33;101822.16;;;15.06;38.27
14204;BME280;7185;51.854;6.622;2023-04-27T09:05:14;101820.69;;;14.89;37.46
14204;BME280;7185;51.854;6.622;2023-04-27T09:07:59;101822.31;;;14.95;38.51
14204;BME280;7185;51.854;6.622;2023-04-27T09:10:44;101811.06;;;15.34;38.95
14204;BME280;7185;51.854;6.622;2023-04-27T09:13:16;101809.56;;;15.67;36.94
14204;BME280;7185;51.854;6.622;2023-04-27T09:15:49;101806.66;;;15.81;38.97
14204;BME280;7185;51.854;6.622;2023-04-27T09:18:22;101804.19;;;15.72;33.81
14204;BME280;7185;51.854;6.622;2023-04-27T09:20:55;101805.81;;;16.21;34.90
14204;BME280;7185;51.854;6.622;2023-04-27T09:23:28;101805.38;;;16.40;33.96
14204;BME280;7185;51.854;6.622;2023-04-27T09:26:01;101804.00;;;16.23;33.38
14204;BME280;7185;51.854;6.622;2023-04-27T09:28:37;101806.16;;;16.45;31.85
14204;BME280;7185;51.854;6.622;2023-04-27T09:31:09;101806.44;;;16.69;34.00
14204;BME280;7185;51.854;6.622;2023-04-27T09:33:43;101811.50;;;16.42;33.41
14204;BME280;7185;51.854;6.622;2023-04-27T09:36:16;101796.81;;;16.29;32.64
14204;BME280;7185;51.854;6.622;2023-04-27T09:38:48;101801.38;;;16.97;34.27
14204;BME280;7185;51.854;6.622;2023-04-27T09:41:21;101801.72;;;17.16;31.26
14204;BME280;7185;51.854;6.622;2023-04-27T09:43:53;101802.38;;;17.26;30.62
14204;BME280;7185;51.854;6.622;2023-04-27T09:46:27;101791.81;;;17.56;31.29
14204;BME280;7185;51.854;6.622;2023-04-27T09:49:00;101783.22;;;18.09;31.94
14204;BME280;7185;51.854;6.622;2023-04-27T09:51:35;101784.91;;;18.67;30.74
14204;BME280;7185;51.854;6.622;2023-04-27T09:54:08;101772.47;;;18.69;29.33
14204;BME280;7185;51.854;6.622;2023-04-27T09:56:49;101781.53;;;18.35;30.15
14204;BME280;7185;51.854;6.622;2023-04-27T09:59:35;101776.72;;;16.57;30.47
14204;BME280;7185;51.854;6.622;2023-04-27T10:02:15;101776.00;;;17.22;31.70
14204;BME280;7185;51.854;6.622;2023-04-27T10:05:06;101762.78;;;17.81;32.99
14204;BME280;7185;51.854;6.622;2023-04-27T10:07:43;101770.44;;;16.98;30.74
14204;BME280;7185;51.854;6.622;2023-04-27T10:10:16;101771.25;;;17.33;32.73
14204;BME280;7185;51.854;6.622;2023-04-27T10:12:56;101761.50;;;17.96;30.99
14204;BME280;7185;51.854;6.622;2023-04-27T10:15:28;101759.22;;;17.52;31.94
14204;BME280;7185;51.854;6.622;2023-04-27T10:18:03;101752.25;;;17.80;29.63
14204;BME280;7185;51.854;6.622;2023-04-27T10:20:36;101756.13;;;16.33;30.56
14204;BME280;7185;51.854;6.622;2023-04-27T10:23:09;101758.72;;;17.07;32.07
14204;BME280;7185;51.854;6.622;2023-04-27T10:25:41;101758.72;;;17.07;30.01
14204;BME280;7185;51.854;6.622;2023-04-27T10:28:15;101758.47;;;17.47;30.52
14204;BME280;7185;51.854;6.622;2023-04-27T10:30:48;101758.94;;;17.62;30.15
14204;BME280;7185;51.854;6.622;2023-04-27T10:33:21;101751.06;;;18.19;31.17
14204;BME280;7185;51.854;6.622;2023-04-27T10:35:55;101747.63;;;18.43;30.50
14204;BME280;7185;51.854;6.622;2023-04-27T10:38:29;101741.91;;;18.29;30.28
14204;BME280;7185;51.854;6.622;2023-04-27T10:41:02;101743.59;;;19.10;31.86
14204;BME280;7185;51.854;6.622;2023-04-27T10:43:34;101737.84;;;19.23;31.38
14204;BME280;7185;51.854;6.622;2023-04-27T10:46:07;101743.97;;;19.25;30.16
14204;BME280;7185;51.854;6.622;2023-04-27T10:48:39;101728.66;;;19.79;29.42
14204;BME280;7185;51.854;6.622;2023-04-27T10:51:14;101734.75;;;20.27;28.80
14204;BME280;7185;51.854;6.622;2023-04-27T10:53:51;101745.88;;;20.59;28.81
14204;BME280;7185;51.854;6.622;2023-04-27T10:56:22;101738.28;;;20.70;27.85
14204;BME280;7185;51.854;6.622;2023-04-27T10:59:01;101734.97;;;21.07;27.20
14204;BME280;7185;51.854;6.622;2023-04-27T11:01:33;101731.44;;;20.65;27.22
14204;BME280;7185;51.854;6.622;2023-04-27T11:04:05;101730.19;;;20.94;27.16
14204;BME280;7185;51.854;6.622;2023-04-27T11:06:41;101714.44;;;21.68;26.94
14204;BME280;7185;51.854;6.622;2023-04-27T11:09:24;101721.91;;;21.97;26.44
14204;BME280;7185;51.854;6.622;2023-04-27T11:11:56;101720.75;;;22.03;26.13
14204;BME280;7185;51.854;6.622;2023-04-27T11:14:28;101720.91;;;22.00;26.58
14204;BME280;7185;51.854;6.622;2023-04-27T11:16:59;101713.16;;;22.13;25.39
14204;BME280;7185;51.854;6.622;2023-04-27T11:19:32;101715.88;;;22.83;24.95
14204;BME280;7185;51.854;6.622;2023-04-27T11:22:04;101713.81;;;22.88;24.70
14204;BME280;7185;51.854;6.622;2023-04-27T11:24:45;101705.69;;;23.25;25.15
14204;BME280;7185;51.854;6.622;2023-04-27T11:27:17;101710.88;;;23.28;24.15
14204;BME280;7185;51.854;6.622;2023-04-27T11:29:51;101709.25;;;24.22;24.21
14204;BME280;7185;51.854;6.622;2023-04-27T11:32:24;101709.03;;;23.78;22.84
14204;BME280;7185;51.854;6.622;2023-04-27T11:34:56;101711.56;;;23.32;23.12
14204;BME280;7185;51.854;6.622;2023-04-27T11:37:27;101706.94;;;22.67;24.41
14204;BME280;7185;51.854;6.622;2023-04-27T11:40:00;101707.84;;;23.01;24.14
14204;BME280;7185;51.854;6.622;2023-04-27T11:42:32;101706.41;;;23.29;24.42
14204;BME280;7185;51.854;6.622;2023-04-27T11:45:04;101709.88;;;22.96;22.90
14204;BME280;7185;51.854;6.622;2023-04-27T11:47:36;101704.97;;;21.99;25.26
14204;BME280;7185;51.854;6.622;2023-04-27T11:50:10;101698.88;;;22.32;25.92
14204;BME280;7185;51.854;6.622;2023-04-27T11:52:41;101697.94;;;22.33;25.14
14204;BME280;7185;51.854;6.622;2023-04-27T11:55:14;101686.69;;;22.08;23.49
14204;BME280;7185;51.854;6.622;2023-04-27T11:57:46;101690.44;;;22.58;25.19
14204;BME280;7185;51.854;6.622;2023-04-27T12:00:18;101679.34;;;22.49;23.24
14204;BME280;7185;51.854;6.622;2023-04-27T12:02:50;101675.63;;;23.20;25.41
14204;BME280;7185;51.854;6.622;2023-04-27T12:05:22;101672.72;;;23.40;24.08
14204;BME280;7185;51.854;6.622;2023-04-27T12:07:54;101661.00;;;23.43;23.77
14204;BME280;7185;51.854;6.622;2023-04-27T12:10:27;101675.84;;;23.33;23.55
14204;BME280;7185;51.854;6.622;2023-04-27T12:12:58;101678.06;;;23.40;24.57
14204;BME280;7185;51.854;6.622;2023-04-27T12:15:30;101675.56;;;23.21;24.28
14204;BME280;7185;51.854;6.622;2023-04-27T12:18:01;101676.53;;;23.52;24.04
14204;BME280;7185;51.854;6.622;2023-04-27T12:20:33;101673.94;;;23.67;22.89
14204;BME280;7185;51.854;6.622;2023-04-27T12:23:05;101669.88;;;23.28;24.27
14204;BME280;7185;51.854;6.622;2023-04-27T12:25:38;101670.97;;;23.23;22.31
14204;BME280;7185;51.854;6.622;2023-04-27T12:28:10;101665.19;;;23.15;22.43
14204;BME280;7185;51.854;6.622;2023-04-27T12:30:48;101661.41;;;23.02;24.28
14204;BME280;7185;51.854;6.622;2023-04-27T12:33:20;101665.81;;;23.20;24.15
14204;BME280;7185;51.854;6.622;2023-04-27T12:35:51;101654.59;;;23.62;24.12
14204;BME280;7185;51.854;6.622;2023-04-27T12:38:23;101648.34;;;24.09;21.83
14204;BME280;7185;51.854;6.622;2023-04-27T12:40:57;101641.56;;;24.48;21.38
14204;BME280;7185;51.854;6.622;2023-04-27T12:43:29;101660.22;;;23.25;24.11
14204;BME280;7185;51.854;6.622;2023-04-27T12:46:00;101652.34;;;23.22;22.91
14204;BME280;7185;51.854;6.622;2023-04-27T12:48:32;101645.66;;;23.47;21.77
14204;BME280;7185;51.854;6.622;2023-04-27T12:51:04;101649.59;;;22.90;21.48
14204;BME280;7185;51.854;6.622;2023-04-27T12:53:37;101658.25;;;23.93;22.93
14204;BME280;7185;51.854;6.622;2023-04-27T12:56:10;101649.50;;;24.05;22.32
14204;BME280;7185;51.854;6.622;2023-04-27T12:58:42;101656.75;;;24.33;20.31
14204;BME280;7185;51.854;6.622;2023-04-27T13:01:13;101646.25;;;24.14;22.28
14204;BME280;7185;51.854;6.622;2023-04-27T13:03:46;101645.25;;;24.01;23.44
14204;BME280;7185;51.854;6.622;2023-04-27T13:06:17;101640.34;;;23.77;21.81
14204;BME280;7185;51.854;6.622;2023-04-27T13:08:49;101639.50;;;23.61;23.98
14204;BME280;7185;51.854;6.622;2023-04-27T13:11:22;101629.72;;;23.60;23.15
14204;BME280;7185;51.854;6.622;2023-04-27T13:13:54;101633.63;;;23.22;22.88
14204;BME280;7185;51.854;6.622;2023-04-27T13:16:26;101628.53;;;23.17;23.56
14204;BME280;7185;51.854;6.622;2023-04-27T13:18:57;101626.72;;;22.84;22.83
14204;BME280;7185;51.854;6.622;2023-04-27T13:21:29;101629.41;;;23.18;24.68
14204;BME280;7185;51.854;6.622;2023-04-27T13:24:02;101628.63;;;22.12;25.04
14204;BME280;7185;51.854;6.622;2023-04-27T13:26:35;101620.97;;;22.23;24.84
14204;BME280;7185;51.854;6.622;2023-04-27T13:29:07;101622.75;;;22.58;24.36
14204;BME280;7185;51.854;6.622;2023-04-27T13:31:38;101628.19;;;22.39;23.89
14204;BME280;7185;51.854;6.622;2023-04-27T13:34:10;101623.25;;;21.77;23.23
14204;BME280;7185;51.854;6.622;2023-04-27T13:36:42;101626.91;;;20.79;24.80